Islotes Evangelistas, Chile
Current Conditions -  °F | °C
As of 11:00 AM on Saturday 22 Nov 2014 (Local Time) from SCCI Reporting Station
Rain Showers Rain Showers  
Wind Chill: 33°   Ceiling: 1500
Heat Index: 39°   Visibility: 6mi
Dew Point: 37°   Wind: 9mph
Humidity: 93%   Direction: 150°SSE
Pressure: 29.53"   Gusts: NA
Location:  52.4°S, 75.1°W
Report Text: SCCI 221500Z 15008KT 9999 -SHRA OVC015 04/03 Q1000 RESHRA NOSIG
Loading
Personal Weather Stations






























Interactive Weather Map New forecast layout! Learn more

10-Day Weather Forecast

Advertisements
Track Severe Weather on mobile